Latest Weather Observations for Mount Nowa Nowa

IDV60801

Issued at 7:05 am EST Thursday 18 September 2014 (issued every 30 minutes, with the page automatically refreshed every 10 minutes)

About weather observations | Map of weather stations | Latest weather observations for VIC | Other Formats
Station Details ID: 084144 Name: MOUNT NOWA NOWA Lat: -37.69 Lon: 148.09 Height: 350.0 m
Data from the previous 72 hours. | See also: Recent months at Mount Nowa Nowa
Date/Time
EST
Temp
°C
App
Temp
°C
Dew
Point
Rel
Hum
%
Delta-T
°C
Wind Press
QNH
hPa
Press
MSL
hPa
Rain
since 9 am
mm
Dir
 
Spd
km/h
Gust
km/h
Spd
kts
Gust
kts
18/07:00am 5.9 1.1 2.7 80 1.3 W 17 32 9 17 - - 0.4
18/06:30am 5.6 1.2 2.6 81 1.3 W 15 30 8 16 - - 0.4
18/06:00am 5.5 1.1 2.5 81 1.2 W 15 32 8 17 - - 0.4
18/05:30am 5.9 0.7 2.5 79 1.4 W 19 39 10 21 - - 0.4
18/05:00am 6.1 1.7 2.6 78 1.5 W 15 33 8 18 - - 0.4
18/04:30am 6.2 1.4 2.5 77 1.6 W 17 35 9 19 - - 0.4
18/04:00am 6.0 0.8 2.5 78 1.5 W 19 32 10 17 - - 0.4
18/03:30am 5.8 0.3 2.1 77 1.5 W 20 37 11 20 - - 0.4
18/03:00am 5.8 1.3 1.9 76 1.6 W 15 35 8 19 - - 0.4
18/02:30am 5.8 1.2 1.7 75 1.7 W 15 28 8 15 - - 0.4
18/02:00am 5.9 0.9 1.6 74 1.8 W 17 32 9 17 - - 0.4
18/01:30am 5.8 1.6 1.5 74 1.8 W 13 20 7 11 - - 0.4
18/01:00am 5.8 0.8 1.3 73 1.8 W 17 30 9 16 - - 0.4
18/12:30am 5.9 1.2 1.2 72 1.9 W 15 24 8 13 - - 0.4
18/12:00am 5.6 1.0 1.5 75 1.7 W 15 30 8 16 - - 0.4
 
Date/Time
EST
Temp
°C
App
Temp
°C
Dew
Point
Rel
Hum
%
Delta-T
°C
Wind Press
QNH
hPa
Press
MSL
hPa
Rain
since 9 am
mm
Dir
 
Spd
km/h
Gust
km/h
Spd
kts
Gust
kts
17/11:30pm 5.8 0.5 1.7 75 1.7 W 19 44 10 24 - - 0.4
17/11:00pm 5.8 1.3 1.9 76 1.6 W 15 37 8 20 - - 0.4
17/10:30pm 6.1 1.2 2.0 75 1.7 W 17 43 9 23 - - 0.4
17/10:00pm 6.2 1.3 1.9 74 1.8 W 17 35 9 19 - - 0.4
17/09:30pm 6.3 1.3 1.6 72 1.9 W 17 32 9 17 - - 0.4
17/09:00pm 6.5 1.0 2.0 73 1.9 W 20 39 11 21 - - 0.4
17/08:30pm 6.5 1.1 2.2 74 1.8 W 20 44 11 24 - - 0.4
17/08:00pm 6.6 0.8 2.3 74 1.8 W 22 54 12 29 - - 0.4
17/07:30pm 6.7 1.5 2.6 75 1.7 W 19 32 10 17 - - 0.4
17/07:00pm 6.9 2.2 3.2 77 1.6 W 17 35 9 19 - - 0.4
17/06:30pm 7.0 2.3 3.4 78 1.6 W 17 35 9 19 - - 0.4
17/06:00pm 7.1 1.9 3.7 79 1.5 W 20 39 11 21 - - 0.4
17/05:30pm 7.6 1.8 4.2 79 1.5 W 24 48 13 26 - - 0.4
17/05:00pm 8.3 3.0 5.1 80 1.5 WSW 22 48 12 26 - - 0.4
17/04:30pm 9.6 4.1 4.0 68 2.5 W 22 46 12 25 - - 0.2
17/04:00pm 9.3 4.8 5.9 79 1.6 WSW 19 39 10 21 - - 0.2
17/03:30pm 10.2 6.2 5.0 70 2.4 W 15 32 8 17 - - 0.0
17/03:00pm 12.4 8.9 7.1 70 2.6 W 15 30 8 16 - - 0.0
17/02:30pm 12.5 8.6 5.4 62 3.4 WSW 15 44 8 24 - - 0.0
17/02:00pm 15.3 11.6 6.3 55 4.4 W 15 33 8 18 - - 0.0
17/01:30pm 14.9 12.0 6.7 58 4.1 W 11 26 6 14 - - 0.0
17/01:00pm 14.2 10.4 5.6 56 4.1 W 15 30 8 16 - - 0.0
17/12:30pm 13.5 10.7 6.8 64 3.3 W 11 24 6 13 - - 0.0
17/12:00pm 13.2 9.8 5.9 61 3.5 W 13 24 7 13 - - 0.0
17/11:30am 13.2 10.1 5.6 60 3.6 W 11 22 6 12 - - 0.0
17/11:00am 13.2 10.6 6.1 62 3.4 W 9 19 5 10 - - 0.0
17/10:30am 11.8 9.1 5.7 66 2.9 W 9 19 5 10 - - 0.0
17/10:00am 11.3 8.8 5.0 65 2.9 W 7 24 4 13 - - 0.0
17/09:30am 11.1 8.3 5.2 67 2.8 W 9 22 5 12 - - 0.0
17/09:00am 10.4 8.5 6.5 77 1.9 W 6 9 3 5 - - 1.8
17/08:30am 9.3 7.7 6.4 82 1.4 WNW 4 9 2 5 - - 1.8
17/08:00am 8.3 6.7 6.3 87 0.9 WNW 4 6 2 3 - - 1.8
17/07:30am 8.2 6.2 6.2 87 0.9 WNW 6 15 3 8 - - 1.8
17/07:00am 7.5 4.8 5.6 88 0.9 W 9 13 5 7 - - 1.8
17/06:30am 7.2 4.1 5.7 90 0.7 W 11 15 6 8 - - 1.8
17/06:00am 7.2 4.5 5.7 90 0.7 W 9 17 5 9 - - 1.8
17/05:30am 7.3 4.7 5.9 91 0.6 W 9 19 5 10 - - 1.8
17/05:00am 7.4 4.4 6.2 92 0.6 W 11 20 6 11 - - 1.8
17/04:30am 7.7 4.8 6.6 93 0.5 W 11 20 6 11 - - 1.8
17/04:00am 8.2 5.0 6.8 91 0.7 W 13 24 7 13 - - 1.8
17/03:30am 8.3 5.2 7.1 92 0.6 W 13 22 7 12 - - 1.8
17/03:00am 8.4 5.7 7.3 93 0.5 W 11 22 6 12 - - 1.8
17/02:30am 8.4 6.1 7.5 94 0.4 W 9 15 5 8 - - 1.8
17/02:00am 8.4 6.1 7.3 93 0.5 W 9 15 5 8 - - 1.8
17/01:30am 8.7 5.7 7.5 92 0.6 W 13 24 7 13 - - 1.8
17/01:00am 8.9 5.9 7.5 91 0.7 W 13 33 7 18 - - 1.8
17/12:30am 9.1 5.7 7.7 91 0.7 W 15 26 8 14 - - 1.8
17/12:00am 9.5 5.7 7.4 87 1.0 W 17 32 9 17 - - 1.8
 
Date/Time
EST
Temp
°C
App
Temp
°C
Dew
Point
Rel
Hum
%
Delta-T
°C
Wind Press
QNH
hPa
Press
MSL
hPa
Rain
since 9 am
mm
Dir
 
Spd
km/h
Gust
km/h
Spd
kts
Gust
kts
16/11:30pm 9.6 6.2 7.5 87 1.0 W 15 26 8 14 - - 1.8
16/11:00pm 9.6 6.2 7.7 88 0.9 W 15 28 8 15 - - 1.8
16/10:30pm 9.6 5.9 8.0 90 0.8 W 17 35 9 19 - - 1.8
16/10:00pm 9.5 6.7 8.6 94 0.4 W 13 24 7 13 - - 1.8
16/09:30pm 9.5 6.4 9.0 97 0.3 W 15 26 8 14 - - 1.8
16/09:00pm 9.6 7.0 9.3 98 0.2 W 13 26 7 14 - - 1.8
16/08:30pm 9.8 7.2 9.3 97 0.3 W 13 24 7 13 - - 1.8
16/08:00pm 9.7 7.0 9.1 96 0.3 WSW 13 26 7 14 - - 1.2
16/07:30pm 10.8 8.1 10.2 96 0.3 W 15 30 8 16 - - 0.8
16/07:00pm 11.0 8.3 10.2 95 0.4 W 15 24 8 13 - - 0.6
16/06:30pm 11.0 8.3 10.2 95 0.4 W 15 22 8 12 - - 0.6
16/06:00pm 11.4 9.0 10.1 92 0.7 W 13 30 7 16 - - 0.6
16/05:30pm 12.3 9.9 10.0 86 1.2 W 13 35 7 19 - - 0.4
16/05:00pm 12.7 10.9 10.8 88 1.0 W 11 24 6 13 - - 0.4
16/04:30pm 12.8 11.1 11.2 90 0.9 W 11 24 6 13 - - 0.4
16/04:00pm 13.3 11.5 11.0 86 1.2 W 11 20 6 11 - - 0.4
16/03:30pm 13.5 11.5 11.6 88 1.0 W 13 28 7 15 - - 0.4
16/03:00pm 13.5 12.8 12.1 91 0.8 W 7 13 4 7 - - 0.4
16/02:30pm 14.0 13.9 12.2 89 1.0 W 4 13 2 7 - - 0.2
16/02:00pm 16.5 16.2 12.8 79 2.1 SW 6 19 3 10 - - 0.0
16/01:30pm 18.3 18.9 13.2 72 2.9 S 2 6 1 3 - - 0.0
16/01:00pm 17.5 17.6 12.6 73 2.8 ESE 4 11 2 6 - - 0.0
16/12:30pm 17.4 17.3 13.3 77 2.3 E 6 11 3 6 - - 0.0
16/12:00pm 16.2 15.7 12.2 77 2.2 ESE 6 9 3 5 - - 0.0
16/11:30am 15.7 15.5 11.9 78 2.1 E 4 7 2 4 - - 0.0
16/11:00am 14.7 14.2 10.7 77 2.1 E 4 7 2 4 - - 0.0
16/10:30am 12.7 12.0 11.3 91 0.8 E 6 11 3 6 - - 0.0
16/10:00am 12.4 11.7 11.3 93 0.6 E 6 7 3 4 - - 0.0
16/09:30am 12.2 11.3 10.8 91 0.7 E 6 9 3 5 - - 0.0
16/09:00am 11.8 10.6 9.5 86 1.2 N 6 7 3 4 - - 5.4
16/08:30am 11.9 10.3 8.9 82 1.5 N 7 13 4 7 - - 5.4
16/08:00am 11.1 9.7 9.4 89 0.9 NNW 7 13 4 7 - - 5.4
16/07:30am 11.6 11.0 9.0 84 1.3 NNE 2 7 1 4 - - 5.4
16/07:00am 11.1 9.6 9.2 88 1.0 NNE 7 15 4 8 - - 5.4
16/06:30am 10.7 8.9 9.5 92 0.6 NNE 9 22 5 12 - - 5.4
16/06:00am 9.9 7.6 9.1 95 0.4 NW 11 24 6 13 - - 5.2
16/05:30am 10.2 8.7 9.3 94 0.5 NW 7 15 4 8 - - 5.2
16/05:00am 10.9 7.7 9.8 93 0.6 ENE 17 24 9 13 - - 5.0
16/04:30am 10.4 7.6 9.9 97 0.3 E 15 22 8 12 - - 5.0
16/04:00am 10.5 8.5 10.2 98 0.2 E 11 17 6 9 - - 5.0
16/03:30am 10.2 7.4 10.1 99 0.1 E 15 20 8 11 - - 5.0
16/03:00am 10.0 7.6 9.9 99 0.1 E 13 19 7 10 - - 5.0
16/02:30am 10.1 8.4 10.0 99 0.1 E 9 13 5 7 - - 5.0
16/02:00am 10.1 8.8 10.0 99 0.1 E 7 11 4 6 - - 4.8
16/01:30am 10.0 8.7 9.9 99 0.1 E 7 11 4 6 - - 4.8
16/01:00am 10.1 8.4 10.0 99 0.1 E 9 17 5 9 - - 4.8
16/12:30am 10.0 7.9 9.9 99 0.1 E 11 17 6 9 - - 4.8
16/12:00am 9.9 7.8 9.6 98 0.2 E 11 17 6 9 - - 4.8
 
Date/Time
EST
Temp
°C
App
Temp
°C
Dew
Point
Rel
Hum
%
Delta-T
°C
Wind Press
QNH
hPa
Press
MSL
hPa
Rain
since 9 am
mm
Dir
 
Spd
km/h
Gust
km/h
Spd
kts
Gust
kts
15/11:30pm 9.8 8.0 9.5 98 0.2 E 9 20 5 11 - - 4.8
15/11:00pm 9.9 7.4 9.6 98 0.2 E 13 20 7 11 - - 4.8
15/10:30pm 10.0 7.9 9.7 98 0.2 E 11 19 6 10 - - 4.8
15/10:00pm 10.0 7.8 9.5 97 0.3 E 11 22 6 12 - - 4.8
15/09:30pm 10.1 8.0 9.6 97 0.3 E 11 15 6 8 - - 4.6
15/09:00pm 10.2 8.8 9.6 96 0.3 E 7 11 4 6 - - 3.8
15/08:30pm 10.3 9.1 9.7 96 0.3 E 6 9 3 5 - - 3.2
15/08:00pm 10.3 9.1 9.7 96 0.3 E 6 7 3 4 - - 2.4
15/07:30pm 10.4 10.4 9.8 96 0.3 CALM 0 4 0 2 - - 1.0
15/07:00pm 10.4 9.6 9.6 95 0.4 ESE 4 7 2 4 - - 0.0
15/06:30pm 10.7 9.3 9.6 93 0.6 ESE 7 9 4 5 - - 0.0
15/06:00pm 10.9 9.2 9.7 92 0.6 E 9 13 5 7 - - 0.0
15/05:30pm 11.3 9.2 9.7 90 0.8 E 11 20 6 11 - - 0.0
15/05:00pm 11.8 9.7 9.7 87 1.1 E 11 19 6 10 - - 0.0
15/04:30pm 12.2 10.5 9.9 86 1.2 E 9 13 5 7 - - 0.0
15/04:00pm 12.4 10.7 9.8 84 1.4 E 9 15 5 8 - - 0.0
15/03:30pm 13.1 11.4 9.9 81 1.7 E 9 15 5 8 - - 0.0
15/03:00pm 13.6 11.9 9.8 78 2.0 ESE 9 17 5 9 - - 0.0
15/02:30pm 14.0 12.7 9.8 76 2.2 E 7 15 4 8 - - 0.0
15/02:00pm 14.8 13.6 10.2 74 2.4 ESE 7 17 4 9 - - 0.0
15/01:30pm 14.9 13.9 10.3 74 2.5 ESE 6 13 3 7 - - 0.0
15/01:00pm 14.7 13.2 9.1 69 2.9 ESE 7 11 4 6 - - 0.0
15/12:30pm 13.8 12.9 9.3 74 2.3 E 4 9 2 5 - - 0.0
15/12:00pm 14.0 13.1 9.4 74 2.4 ESE 4 7 2 4 - - 0.0
15/11:30am 13.9 13.3 8.9 72 2.6 E 2 7 1 4 - - 0.0
15/11:00am 14.3 13.4 9.1 71 2.7 E 4 9 2 5 - - 0.0
15/10:30am 13.1 11.5 8.2 72 2.5 E 6 7 3 4 - - 0.0
15/10:00am 13.3 12.2 8.4 72 2.5 E 4 9 2 5 - - 0.0
15/09:30am 12.6 11.2 7.3 70 2.6 E 4 7 2 4 - - 0.0
15/09:00am 11.3 9.8 6.6 73 2.3 NE 4 7 2 4 - - 0.0
15/08:30am 11.1 9.2 6.5 73 2.2 ENE 6 9 3 5 - - 0.0
15/08:00am 10.4 8.8 6.4 76 1.9 NNE 4 9 2 5 - - 0.0
15/07:30am 9.9 7.8 5.9 76 1.9 NE 6 9 3 5 - - 0.0

Other Formats:

Comma delimited format used in spreadsheet applications
http://www.bom.gov.au/fwo/IDV60801/IDV60801.94930.axf

JavaScript Object Notation format (JSON) in row-major order
http://www.bom.gov.au/fwo/IDV60801/IDV60801.94930.json